sensor_id;sensor_type;location;lat;lon;timestamp;P1;durP1;ratioP1;P2;durP2;ratioP2
66546;SDS011;53400;50.364;14.874;2024-01-30T00:01:36;25.38;;;12.13;;
66546;SDS011;53400;50.364;14.874;2024-01-30T00:04:05;27.80;;;14.07;;
66546;SDS011;53400;50.364;14.874;2024-01-30T00:06:38;24.92;;;11.85;;
66546;SDS011;53400;50.364;14.874;2024-01-30T00:09:04;28.60;;;14.15;;
66546;SDS011;53400;50.364;14.874;2024-01-30T00:11:30;28.67;;;14.05;;
66546;SDS011;53400;50.364;14.874;2024-01-30T00:13:57;29.25;;;13.57;;
66546;SDS011;53400;50.364;14.874;2024-01-30T00:16:31;25.52;;;13.88;;
66546;SDS011;53400;50.364;14.874;2024-01-30T00:18:57;26.77;;;13.93;;
66546;SDS011;53400;50.364;14.874;2024-01-30T00:21:23;25.60;;;14.25;;
66546;SDS011;53400;50.364;14.874;2024-01-30T00:23:50;26.50;;;14.27;;
66546;SDS011;53400;50.364;14.874;2024-01-30T00:26:16;27.20;;;13.80;;
66546;SDS011;53400;50.364;14.874;2024-01-30T00:28:44;26.23;;;14.15;;
66546;SDS011;53400;50.364;14.874;2024-01-30T00:31:10;24.67;;;13.35;;
66546;SDS011;53400;50.364;14.874;2024-01-30T00:33:39;26.60;;;13.52;;
66546;SDS011;53400;50.364;14.874;2024-01-30T00:38:38;27.67;;;12.90;;
66546;SDS011;53400;50.364;14.874;2024-01-30T00:41:04;25.17;;;12.23;;
66546;SDS011;53400;50.364;14.874;2024-01-30T00:43:30;26.10;;;13.02;;
66546;SDS011;53400;50.364;14.874;2024-01-30T00:46:05;28.42;;;13.38;;
66546;SDS011;53400;50.364;14.874;2024-01-30T00:48:40;27.42;;;13.68;;
66546;SDS011;53400;50.364;14.874;2024-01-30T00:51:06;26.20;;;13.65;;
66546;SDS011;53400;50.364;14.874;2024-01-30T00:53:33;23.33;;;13.20;;
66546;SDS011;53400;50.364;14.874;2024-01-30T00:58:47;26.85;;;13.73;;
66546;SDS011;53400;50.364;14.874;2024-01-30T01:01:12;23.88;;;13.30;;
66546;SDS011;53400;50.364;14.874;2024-01-30T01:03:41;28.73;;;14.27;;
66546;SDS011;53400;50.364;14.874;2024-01-30T01:06:10;29.63;;;13.40;;
66546;SDS011;53400;50.364;14.874;2024-01-30T01:08:46;23.58;;;12.05;;
66546;SDS011;53400;50.364;14.874;2024-01-30T01:11:11;27.13;;;12.43;;
66546;SDS011;53400;50.364;14.874;2024-01-30T01:13:38;27.42;;;14.70;;
66546;SDS011;53400;50.364;14.874;2024-01-30T01:16:08;26.50;;;13.77;;
66546;SDS011;53400;50.364;14.874;2024-01-30T01:18:38;25.73;;;13.35;;
66546;SDS011;53400;50.364;14.874;2024-01-30T01:21:08;27.55;;;12.65;;
66546;SDS011;53400;50.364;14.874;2024-01-30T01:23:34;24.40;;;13.77;;
66546;SDS011;53400;50.364;14.874;2024-01-30T01:26:03;32.55;;;13.65;;
66546;SDS011;53400;50.364;14.874;2024-01-30T01:28:40;26.20;;;13.55;;
66546;SDS011;53400;50.364;14.874;2024-01-30T01:31:06;25.67;;;12.57;;
66546;SDS011;53400;50.364;14.874;2024-01-30T01:33:33;22.10;;;11.70;;
66546;SDS011;53400;50.364;14.874;2024-01-30T01:36:04;27.75;;;13.23;;
66546;SDS011;53400;50.364;14.874;2024-01-30T01:38:49;26.00;;;14.05;;
66546;SDS011;53400;50.364;14.874;2024-01-30T01:41:15;27.52;;;13.85;;
66546;SDS011;53400;50.364;14.874;2024-01-30T01:43:41;23.77;;;11.55;;
66546;SDS011;53400;50.364;14.874;2024-01-30T01:46:12;25.23;;;12.85;;
66546;SDS011;53400;50.364;14.874;2024-01-30T01:48:43;26.80;;;12.20;;
66546;SDS011;53400;50.364;14.874;2024-01-30T01:51:11;26.95;;;13.60;;
66546;SDS011;53400;50.364;14.874;2024-01-30T01:53:38;29.98;;;14.30;;
66546;SDS011;53400;50.364;14.874;2024-01-30T01:56:05;24.50;;;12.60;;
66546;SDS011;53400;50.364;14.874;2024-01-30T01:58:35;26.30;;;13.52;;
66546;SDS011;53400;50.364;14.874;2024-01-30T02:01:02;24.27;;;12.13;;
66546;SDS011;53400;50.364;14.874;2024-01-30T02:03:30;24.52;;;12.80;;
66546;SDS011;53400;50.364;14.874;2024-01-30T02:05:56;21.52;;;11.73;;
66546;SDS011;53400;50.364;14.874;2024-01-30T02:08:24;27.13;;;12.50;;
66546;SDS011;53400;50.364;14.874;2024-01-30T02:10:50;25.65;;;13.27;;
66546;SDS011;53400;50.364;14.874;2024-01-30T02:13:16;24.15;;;13.05;;
66546;SDS011;53400;50.364;14.874;2024-01-30T02:15:48;27.40;;;13.43;;
66546;SDS011;53400;50.364;14.874;2024-01-30T02:18:16;25.45;;;13.57;;
66546;SDS011;53400;50.364;14.874;2024-01-30T02:20:42;27.83;;;13.27;;
66546;SDS011;53400;50.364;14.874;2024-01-30T02:23:11;21.95;;;12.25;;
66546;SDS011;53400;50.364;14.874;2024-01-30T02:25:38;26.23;;;12.13;;
66546;SDS011;53400;50.364;14.874;2024-01-30T02:28:11;22.50;;;12.45;;
66546;SDS011;53400;50.364;14.874;2024-01-30T02:30:37;22.08;;;12.02;;
66546;SDS011;53400;50.364;14.874;2024-01-30T02:33:04;21.70;;;11.82;;
66546;SDS011;53400;50.364;14.874;2024-01-30T02:35:30;26.52;;;13.38;;
66546;SDS011;53400;50.364;14.874;2024-01-30T02:37:56;25.98;;;12.13;;
66546;SDS011;53400;50.364;14.874;2024-01-30T02:40:24;23.77;;;11.43;;
66546;SDS011;53400;50.364;14.874;2024-01-30T02:42:55;23.20;;;12.73;;
66546;SDS011;53400;50.364;14.874;2024-01-30T02:45:21;25.88;;;12.10;;
66546;SDS011;53400;50.364;14.874;2024-01-30T02:47:47;20.38;;;10.93;;
66546;SDS011;53400;50.364;14.874;2024-01-30T02:50:14;23.83;;;12.32;;
66546;SDS011;53400;50.364;14.874;2024-01-30T02:52:43;25.63;;;13.40;;
66546;SDS011;53400;50.364;14.874;2024-01-30T02:55:11;20.70;;;10.82;;
66546;SDS011;53400;50.364;14.874;2024-01-30T02:57:41;25.63;;;12.30;;
66546;SDS011;53400;50.364;14.874;2024-01-30T03:00:09;28.73;;;13.20;;
66546;SDS011;53400;50.364;14.874;2024-01-30T03:02:45;25.83;;;12.48;;
66546;SDS011;53400;50.364;14.874;2024-01-30T03:05:11;21.92;;;11.45;;
66546;SDS011;53400;50.364;14.874;2024-01-30T03:07:37;26.15;;;11.57;;
66546;SDS011;53400;50.364;14.874;2024-01-30T03:10:04;22.83;;;11.63;;
66546;SDS011;53400;50.364;14.874;2024-01-30T03:12:45;26.90;;;11.82;;
66546;SDS011;53400;50.364;14.874;2024-01-30T03:15:11;22.23;;;11.98;;
66546;SDS011;53400;50.364;14.874;2024-01-30T03:17:41;23.55;;;12.30;;
66546;SDS011;53400;50.364;14.874;2024-01-30T03:20:08;22.83;;;12.65;;
66546;SDS011;53400;50.364;14.874;2024-01-30T03:22:44;23.15;;;11.55;;
66546;SDS011;53400;50.364;14.874;2024-01-30T03:25:10;23.05;;;12.23;;
66546;SDS011;53400;50.364;14.874;2024-01-30T03:27:36;25.08;;;12.00;;
66546;SDS011;53400;50.364;14.874;2024-01-30T03:30:11;22.67;;;11.82;;
66546;SDS011;53400;50.364;14.874;2024-01-30T03:32:43;25.58;;;11.95;;
66546;SDS011;53400;50.364;14.874;2024-01-30T03:35:09;25.63;;;11.32;;
66546;SDS011;53400;50.364;14.874;2024-01-30T03:37:36;22.92;;;11.80;;
66546;SDS011;53400;50.364;14.874;2024-01-30T03:40:03;26.60;;;12.25;;
66546;SDS011;53400;50.364;14.874;2024-01-30T03:42:46;21.90;;;12.20;;
66546;SDS011;53400;50.364;14.874;2024-01-30T03:45:15;26.38;;;11.82;;
66546;SDS011;53400;50.364;14.874;2024-01-30T03:47:43;23.65;;;12.25;;
66546;SDS011;53400;50.364;14.874;2024-01-30T03:50:09;24.98;;;12.32;;
66546;SDS011;53400;50.364;14.874;2024-01-30T03:52:44;23.77;;;12.55;;
66546;SDS011;53400;50.364;14.874;2024-01-30T03:55:09;28.08;;;12.25;;
66546;SDS011;53400;50.364;14.874;2024-01-30T03:57:36;23.40;;;11.52;;
66546;SDS011;53400;50.364;14.874;2024-01-30T04:00:08;23.85;;;11.80;;
66546;SDS011;53400;50.364;14.874;2024-01-30T04:02:46;26.00;;;13.18;;
66546;SDS011;53400;50.364;14.874;2024-01-30T04:05:12;24.88;;;13.45;;
66546;SDS011;53400;50.364;14.874;2024-01-30T04:07:39;24.92;;;12.50;;
66546;SDS011;53400;50.364;14.874;2024-01-30T04:10:10;28.50;;;12.88;;
66546;SDS011;53400;50.364;14.874;2024-01-30T04:12:41;24.23;;;12.68;;
66546;SDS011;53400;50.364;14.874;2024-01-30T04:15:07;23.85;;;11.07;;
66546;SDS011;53400;50.364;14.874;2024-01-30T04:17:36;23.60;;;11.20;;
66546;SDS011;53400;50.364;14.874;2024-01-30T04:20:13;24.42;;;11.90;;
66546;SDS011;53400;50.364;14.874;2024-01-30T04:22:52;23.17;;;13.00;;
66546;SDS011;53400;50.364;14.874;2024-01-30T04:25:19;24.02;;;11.85;;
66546;SDS011;53400;50.364;14.874;2024-01-30T04:27:45;25.58;;;13.02;;
66546;SDS011;53400;50.364;14.874;2024-01-30T04:30:12;27.90;;;12.65;;
66546;SDS011;53400;50.364;14.874;2024-01-30T04:32:43;23.77;;;12.10;;
66546;SDS011;53400;50.364;14.874;2024-01-30T04:35:09;26.88;;;13.38;;
66546;SDS011;53400;50.364;14.874;2024-01-30T04:37:36;26.95;;;12.93;;
66546;SDS011;53400;50.364;14.874;2024-01-30T04:40:02;22.83;;;11.02;;
66546;SDS011;53400;50.364;14.874;2024-01-30T04:42:35;23.73;;;12.18;;
66546;SDS011;53400;50.364;14.874;2024-01-30T04:45:01;23.65;;;11.95;;
66546;SDS011;53400;50.364;14.874;2024-01-30T04:47:28;24.55;;;11.48;;
66546;SDS011;53400;50.364;14.874;2024-01-30T04:49:56;24.33;;;11.68;;
66546;SDS011;53400;50.364;14.874;2024-01-30T04:52:32;25.75;;;11.57;;
66546;SDS011;53400;50.364;14.874;2024-01-30T04:54:58;26.42;;;12.15;;
66546;SDS011;53400;50.364;14.874;2024-01-30T04:57:25;27.23;;;12.13;;
66546;SDS011;53400;50.364;14.874;2024-01-30T04:59:51;22.05;;;10.98;;
66546;SDS011;53400;50.364;14.874;2024-01-30T05:02:17;24.05;;;12.77;;
66546;SDS011;53400;50.364;14.874;2024-01-30T05:04:43;24.77;;;12.13;;
66546;SDS011;53400;50.364;14.874;2024-01-30T05:07:11;26.13;;;12.23;;
66546;SDS011;53400;50.364;14.874;2024-01-30T05:09:37;26.60;;;12.85;;
66546;SDS011;53400;50.364;14.874;2024-01-30T05:12:07;21.83;;;11.77;;
66546;SDS011;53400;50.364;14.874;2024-01-30T05:14:37;25.40;;;12.07;;
66546;SDS011;53400;50.364;14.874;2024-01-30T05:17:07;22.88;;;11.65;;
66546;SDS011;53400;50.364;14.874;2024-01-30T05:19:35;27.48;;;13.13;;
66546;SDS011;53400;50.364;14.874;2024-01-30T05:22:05;25.15;;;12.30;;
66546;SDS011;53400;50.364;14.874;2024-01-30T05:24:36;22.65;;;12.80;;
66546;SDS011;53400;50.364;14.874;2024-01-30T05:27:03;21.60;;;10.98;;
66546;SDS011;53400;50.364;14.874;2024-01-30T05:29:29;24.98;;;11.48;;
66546;SDS011;53400;50.364;14.874;2024-01-30T05:31:55;25.98;;;12.65;;
66546;SDS011;53400;50.364;14.874;2024-01-30T05:34:22;24.95;;;11.50;;
66546;SDS011;53400;50.364;14.874;2024-01-30T05:36:49;27.05;;;12.60;;
66546;SDS011;53400;50.364;14.874;2024-01-30T05:39:15;23.37;;;12.00;;
66546;SDS011;53400;50.364;14.874;2024-01-30T05:41:43;25.92;;;11.90;;
66546;SDS011;53400;50.364;14.874;2024-01-30T05:44:10;23.20;;;12.15;;
66546;SDS011;53400;50.364;14.874;2024-01-30T05:46:49;24.58;;;12.10;;
66546;SDS011;53400;50.364;14.874;2024-01-30T05:49:15;24.02;;;11.25;;
66546;SDS011;53400;50.364;14.874;2024-01-30T05:51:41;27.25;;;13.60;;
66546;SDS011;53400;50.364;14.874;2024-01-30T05:54:07;26.25;;;11.55;;
66546;SDS011;53400;50.364;14.874;2024-01-30T05:56:34;28.48;;;12.52;;
66546;SDS011;53400;50.364;14.874;2024-01-30T05:59:13;24.58;;;12.52;;
66546;SDS011;53400;50.364;14.874;2024-01-30T06:01:44;26.67;;;11.35;;
66546;SDS011;53400;50.364;14.874;2024-01-30T06:04:11;25.38;;;11.85;;
66546;SDS011;53400;50.364;14.874;2024-01-30T06:06:37;25.23;;;10.75;;
66546;SDS011;53400;50.364;14.874;2024-01-30T06:09:03;24.75;;;13.60;;
66546;SDS011;53400;50.364;14.874;2024-01-30T06:11:39;26.63;;;10.88;;
66546;SDS011;53400;50.364;14.874;2024-01-30T06:14:07;24.08;;;12.95;;
66546;SDS011;53400;50.364;14.874;2024-01-30T06:16:33;24.15;;;12.57;;
66546;SDS011;53400;50.364;14.874;2024-01-30T06:19:02;25.33;;;12.02;;
66546;SDS011;53400;50.364;14.874;2024-01-30T06:21:44;26.23;;;12.43;;
66546;SDS011;53400;50.364;14.874;2024-01-30T06:24:14;24.55;;;11.75;;
66546;SDS011;53400;50.364;14.874;2024-01-30T06:26:40;27.63;;;12.57;;
66546;SDS011;53400;50.364;14.874;2024-01-30T06:29:09;21.95;;;11.52;;
66546;SDS011;53400;50.364;14.874;2024-01-30T06:31:41;26.55;;;12.23;;
66546;SDS011;53400;50.364;14.874;2024-01-30T06:34:07;27.67;;;12.25;;
66546;SDS011;53400;50.364;14.874;2024-01-30T06:36:34;26.92;;;12.13;;
66546;SDS011;53400;50.364;14.874;2024-01-30T06:41:41;25.83;;;12.82;;
66546;SDS011;53400;50.364;14.874;2024-01-30T06:44:08;23.95;;;11.70;;
66546;SDS011;53400;50.364;14.874;2024-01-30T06:46:35;26.73;;;12.80;;
66546;SDS011;53400;50.364;14.874;2024-01-30T06:49:04;22.40;;;11.48;;
66546;SDS011;53400;50.364;14.874;2024-01-30T06:51:37;25.88;;;13.30;;
66546;SDS011;53400;50.364;14.874;2024-01-30T06:54:03;23.30;;;12.68;;
66546;SDS011;53400;50.364;14.874;2024-01-30T06:56:30;27.48;;;12.63;;
66546;SDS011;53400;50.364;14.874;2024-01-30T06:58:55;25.52;;;13.10;;
66546;SDS011;53400;50.364;14.874;2024-01-30T07:01:29;26.77;;;13.52;;
66546;SDS011;53400;50.364;14.874;2024-01-30T07:03:55;28.63;;;14.18;;
66546;SDS011;53400;50.364;14.874;2024-01-30T07:06:21;24.15;;;12.68;;
66546;SDS011;53400;50.364;14.874;2024-01-30T07:08:48;25.83;;;12.25;;
66546;SDS011;53400;50.364;14.874;2024-01-30T07:11:19;24.20;;;13.80;;
66546;SDS011;53400;50.364;14.874;2024-01-30T07:13:49;24.90;;;11.57;;
66546;SDS011;53400;50.364;14.874;2024-01-30T07:16:16;26.25;;;12.85;;
66546;SDS011;53400;50.364;14.874;2024-01-30T07:18:44;27.08;;;13.15;;
66546;SDS011;53400;50.364;14.874;2024-01-30T07:21:14;26.27;;;13.27;;
66546;SDS011;53400;50.364;14.874;2024-01-30T07:23:40;23.20;;;10.68;;
66546;SDS011;53400;50.364;14.874;2024-01-30T07:26:07;25.08;;;11.88;;
66546;SDS011;53400;50.364;14.874;2024-01-30T07:28:34;24.80;;;12.23;;
66546;SDS011;53400;50.364;14.874;2024-01-30T07:31:04;27.98;;;12.65;;
66546;SDS011;53400;50.364;14.874;2024-01-30T07:33:34;25.98;;;12.27;;
66546;SDS011;53400;50.364;14.874;2024-01-30T07:36:02;23.40;;;11.85;;
66546;SDS011;53400;50.364;14.874;2024-01-30T07:38:28;28.95;;;13.10;;
66546;SDS011;53400;50.364;14.874;2024-01-30T07:40:57;23.92;;;12.55;;
66546;SDS011;53400;50.364;14.874;2024-01-30T07:43:23;25.60;;;12.23;;
66546;SDS011;53400;50.364;14.874;2024-01-30T07:45:53;24.08;;;11.95;;
66546;SDS011;53400;50.364;14.874;2024-01-30T07:48:18;23.98;;;12.82;;
66546;SDS011;53400;50.364;14.874;2024-01-30T07:50:46;25.48;;;12.77;;
66546;SDS011;53400;50.364;14.874;2024-01-30T07:53:23;23.85;;;12.25;;
66546;SDS011;53400;50.364;14.874;2024-01-30T07:56:02;24.08;;;10.80;;
66546;SDS011;53400;50.364;14.874;2024-01-30T07:58:28;24.52;;;11.93;;
66546;SDS011;53400;50.364;14.874;2024-01-30T08:00:55;26.67;;;12.68;;
66546;SDS011;53400;50.364;14.874;2024-01-30T08:03:29;27.13;;;13.40;;
66546;SDS011;53400;50.364;14.874;2024-01-30T08:05:55;25.23;;;13.05;;
66546;SDS011;53400;50.364;14.874;2024-01-30T08:08:22;25.65;;;12.68;;
66546;SDS011;53400;50.364;14.874;2024-01-30T08:10:49;26.25;;;12.52;;
66546;SDS011;53400;50.364;14.874;2024-01-30T08:13:15;29.13;;;13.50;;
66546;SDS011;53400;50.364;14.874;2024-01-30T08:15:44;25.33;;;12.20;;
66546;SDS011;53400;50.364;14.874;2024-01-30T08:18:10;26.55;;;13.35;;
66546;SDS011;53400;50.364;14.874;2024-01-30T08:20:36;23.88;;;12.73;;
66546;SDS011;53400;50.364;14.874;2024-01-30T08:23:05;24.42;;;12.90;;
66546;SDS011;53400;50.364;14.874;2024-01-30T08:25:34;22.08;;;11.45;;
66546;SDS011;53400;50.364;14.874;2024-01-30T08:28:02;20.70;;;11.25;;
66546;SDS011;53400;50.364;14.874;2024-01-30T08:30:28;24.45;;;11.73;;
66546;SDS011;53400;50.364;14.874;2024-01-30T08:32:54;22.85;;;11.90;;
66546;SDS011;53400;50.364;14.874;2024-01-30T08:35:20;26.58;;;11.88;;
66546;SDS011;53400;50.364;14.874;2024-01-30T08:37:46;27.55;;;12.20;;
66546;SDS011;53400;50.364;14.874;2024-01-30T08:40:12;23.30;;;10.82;;
66546;SDS011;53400;50.364;14.874;2024-01-30T08:42:40;21.20;;;11.30;;
66546;SDS011;53400;50.364;14.874;2024-01-30T08:45:10;25.30;;;12.30;;
66546;SDS011;53400;50.364;14.874;2024-01-30T08:47:38;22.87;;;11.13;;
66546;SDS011;53400;50.364;14.874;2024-01-30T08:50:06;24.50;;;12.88;;
66546;SDS011;53400;50.364;14.874;2024-01-30T08:52:33;23.60;;;11.35;;
66546;SDS011;53400;50.364;14.874;2024-01-30T08:55:05;21.58;;;12.00;;
66546;SDS011;53400;50.364;14.874;2024-01-30T08:57:37;23.88;;;11.65;;
66546;SDS011;53400;50.364;14.874;2024-01-30T09:00:06;21.85;;;11.07;;
66546;SDS011;53400;50.364;14.874;2024-01-30T09:02:34;23.80;;;12.48;;
66546;SDS011;53400;50.364;14.874;2024-01-30T09:05:12;24.40;;;13.23;;
66546;SDS011;53400;50.364;14.874;2024-01-30T09:07:39;22.23;;;12.65;;
66546;SDS011;53400;50.364;14.874;2024-01-30T09:10:06;24.58;;;9.65;;
66546;SDS011;53400;50.364;14.874;2024-01-30T09:12:32;23.13;;;12.43;;
66546;SDS011;53400;50.364;14.874;2024-01-30T09:15:03;26.50;;;13.63;;
66546;SDS011;53400;50.364;14.874;2024-01-30T09:17:36;25.60;;;12.95;;
66546;SDS011;53400;50.364;14.874;2024-01-30T09:20:02;24.65;;;12.65;;
66546;SDS011;53400;50.364;14.874;2024-01-30T09:22:28;24.85;;;13.38;;
66546;SDS011;53400;50.364;14.874;2024-01-30T09:24:55;24.45;;;12.63;;
66546;SDS011;53400;50.364;14.874;2024-01-30T09:27:24;23.33;;;12.85;;
66546;SDS011;53400;50.364;14.874;2024-01-30T09:29:51;24.63;;;13.02;;
66546;SDS011;53400;50.364;14.874;2024-01-30T09:32:18;22.25;;;13.45;;
66546;SDS011;53400;50.364;14.874;2024-01-30T09:34:44;22.65;;;12.98;;
66546;SDS011;53400;50.364;14.874;2024-01-30T09:39:38;26.00;;;11.88;;
66546;SDS011;53400;50.364;14.874;2024-01-30T09:42:05;22.65;;;12.07;;
66546;SDS011;53400;50.364;14.874;2024-01-30T09:44:37;24.23;;;11.80;;
66546;SDS011;53400;50.364;14.874;2024-01-30T09:47:08;23.58;;;12.60;;
66546;SDS011;53400;50.364;14.874;2024-01-30T09:49:41;28.37;;;14.30;;
66546;SDS011;53400;50.364;14.874;2024-01-30T09:52:08;25.00;;;12.82;;
66546;SDS011;53400;50.364;14.874;2024-01-30T09:54:35;27.90;;;13.93;;
66546;SDS011;53400;50.364;14.874;2024-01-30T09:57:04;28.83;;;13.32;;
66546;SDS011;53400;50.364;14.874;2024-01-30T09:59:35;24.45;;;13.13;;
66546;SDS011;53400;50.364;14.874;2024-01-30T10:02:01;25.98;;;14.13;;
66546;SDS011;53400;50.364;14.874;2024-01-30T10:04:30;25.27;;;14.07;;
66546;SDS011;53400;50.364;14.874;2024-01-30T10:06:57;25.23;;;13.98;;
66546;SDS011;53400;50.364;14.874;2024-01-30T10:09:31;25.45;;;14.32;;
66546;SDS011;53400;50.364;14.874;2024-01-30T10:11:58;23.58;;;13.40;;
66546;SDS011;53400;50.364;14.874;2024-01-30T10:14:25;26.67;;;13.90;;
66546;SDS011;53400;50.364;14.874;2024-01-30T10:16:51;27.35;;;14.00;;
66546;SDS011;53400;50.364;14.874;2024-01-30T10:19:18;26.42;;;14.40;;
66546;SDS011;53400;50.364;14.874;2024-01-30T10:21:52;32.65;;;16.30;;
66546;SDS011;53400;50.364;14.874;2024-01-30T10:24:23;29.45;;;16.13;;
66546;SDS011;53400;50.364;14.874;2024-01-30T10:26:49;37.92;;;18.48;;
66546;SDS011;53400;50.364;14.874;2024-01-30T10:29:18;34.97;;;19.08;;
66546;SDS011;53400;50.364;14.874;2024-01-30T10:31:57;32.80;;;16.55;;
66546;SDS011;53400;50.364;14.874;2024-01-30T10:34:23;33.47;;;18.30;;
66546;SDS011;53400;50.364;14.874;2024-01-30T10:36:49;37.45;;;18.80;;
66546;SDS011;53400;50.364;14.874;2024-01-30T10:39:20;35.25;;;18.52;;
66546;SDS011;53400;50.364;14.874;2024-01-30T10:44:18;35.63;;;17.75;;
66546;SDS011;53400;50.364;14.874;2024-01-30T10:46:49;36.28;;;18.33;;
66546;SDS011;53400;50.364;14.874;2024-01-30T10:49:21;41.75;;;19.85;;
66546;SDS011;53400;50.364;14.874;2024-01-30T10:51:48;42.58;;;20.35;;
66546;SDS011;53400;50.364;14.874;2024-01-30T10:54:17;44.25;;;21.27;;
66546;SDS011;53400;50.364;14.874;2024-01-30T10:56:46;34.70;;;19.55;;
66546;SDS011;53400;50.364;14.874;2024-01-30T10:59:18;40.05;;;20.10;;
66546;SDS011;53400;50.364;14.874;2024-01-30T11:01:47;42.42;;;20.20;;
66546;SDS011;53400;50.364;14.874;2024-01-30T11:04:14;38.40;;;20.63;;
66546;SDS011;53400;50.364;14.874;2024-01-30T11:06:41;38.85;;;18.38;;
66546;SDS011;53400;50.364;14.874;2024-01-30T11:09:11;43.22;;;20.60;;
66546;SDS011;53400;50.364;14.874;2024-01-30T11:11:52;45.30;;;21.92;;
66546;SDS011;53400;50.364;14.874;2024-01-30T11:14:28;46.63;;;21.30;;
66546;SDS011;53400;50.364;14.874;2024-01-30T11:16:57;46.67;;;22.83;;
66546;SDS011;53400;50.364;14.874;2024-01-30T11:19:24;42.72;;;21.83;;
66546;SDS011;53400;50.364;14.874;2024-01-30T11:21:51;42.35;;;21.10;;
66546;SDS011;53400;50.364;14.874;2024-01-30T11:24:22;45.03;;;22.02;;
66546;SDS011;53400;50.364;14.874;2024-01-30T11:26:48;47.97;;;21.88;;
66546;SDS011;53400;50.364;14.874;2024-01-30T11:29:20;40.45;;;20.67;;
66546;SDS011;53400;50.364;14.874;2024-01-30T11:31:53;46.90;;;22.67;;
66546;SDS011;53400;50.364;14.874;2024-01-30T11:36:47;46.40;;;22.73;;
66546;SDS011;53400;50.364;14.874;2024-01-30T11:39:18;40.58;;;21.48;;
66546;SDS011;53400;50.364;14.874;2024-01-30T11:41:45;50.50;;;23.45;;
66546;SDS011;53400;50.364;14.874;2024-01-30T11:44:13;52.10;;;24.05;;
66546;SDS011;53400;50.364;14.874;2024-01-30T11:46:42;50.35;;;25.25;;
66546;SDS011;53400;50.364;14.874;2024-01-30T11:49:09;51.40;;;23.60;;
66546;SDS011;53400;50.364;14.874;2024-01-30T11:51:36;52.38;;;24.42;;
66546;SDS011;53400;50.364;14.874;2024-01-30T11:54:02;54.08;;;25.90;;
66546;SDS011;53400;50.364;14.874;2024-01-30T11:56:32;50.25;;;23.15;;
66546;SDS011;53400;50.364;14.874;2024-01-30T11:58:58;51.63;;;23.38;;
66546;SDS011;53400;50.364;14.874;2024-01-30T12:01:33;58.90;;;24.38;;
66546;SDS011;53400;50.364;14.874;2024-01-30T12:04:01;49.30;;;23.10;;
66546;SDS011;53400;50.364;14.874;2024-01-30T12:06:28;51.33;;;23.55;;
66546;SDS011;53400;50.364;14.874;2024-01-30T12:08:57;49.35;;;23.17;;
66546;SDS011;53400;50.364;14.874;2024-01-30T12:11:30;50.42;;;23.77;;
66546;SDS011;53400;50.364;14.874;2024-01-30T12:13:56;49.42;;;23.83;;
66546;SDS011;53400;50.364;14.874;2024-01-30T12:16:23;52.03;;;25.00;;
66546;SDS011;53400;50.364;14.874;2024-01-30T12:18:49;58.03;;;24.83;;
66546;SDS011;53400;50.364;14.874;2024-01-30T12:21:26;48.88;;;23.52;;
66546;SDS011;53400;50.364;14.874;2024-01-30T12:23:52;47.45;;;23.08;;
66546;SDS011;53400;50.364;14.874;2024-01-30T12:26:18;49.58;;;22.38;;
66546;SDS011;53400;50.364;14.874;2024-01-30T12:28:48;45.28;;;21.48;;
66546;SDS011;53400;50.364;14.874;2024-01-30T12:31:15;45.60;;;21.08;;
66546;SDS011;53400;50.364;14.874;2024-01-30T12:33:42;48.08;;;23.02;;
66546;SDS011;53400;50.364;14.874;2024-01-30T12:36:08;50.13;;;22.67;;
66546;SDS011;53400;50.364;14.874;2024-01-30T12:38:36;44.55;;;20.40;;
66546;SDS011;53400;50.364;14.874;2024-01-30T12:41:07;42.10;;;20.13;;
66546;SDS011;53400;50.364;14.874;2024-01-30T12:43:35;48.28;;;22.38;;
66546;SDS011;53400;50.364;14.874;2024-01-30T12:46:01;43.92;;;21.98;;
66546;SDS011;53400;50.364;14.874;2024-01-30T12:48:28;43.17;;;21.33;;
66546;SDS011;53400;50.364;14.874;2024-01-30T12:50:55;40.60;;;20.50;;
66546;SDS011;53400;50.364;14.874;2024-01-30T12:53:22;41.13;;;19.75;;
66546;SDS011;53400;50.364;14.874;2024-01-30T12:55:51;44.88;;;21.05;;
66546;SDS011;53400;50.364;14.874;2024-01-30T12:58:17;42.22;;;20.17;;
66546;SDS011;53400;50.364;14.874;2024-01-30T13:00:43;43.78;;;22.15;;
66546;SDS011;53400;50.364;14.874;2024-01-30T13:03:11;44.58;;;20.20;;
66546;SDS011;53400;50.364;14.874;2024-01-30T13:05:42;40.10;;;19.63;;
66546;SDS011;53400;50.364;14.874;2024-01-30T13:08:09;36.03;;;19.17;;
66546;SDS011;53400;50.364;14.874;2024-01-30T13:10:34;39.47;;;20.27;;
66546;SDS011;53400;50.364;14.874;2024-01-30T13:13:18;42.70;;;20.23;;
66546;SDS011;53400;50.364;14.874;2024-01-30T13:15:53;40.92;;;19.67;;
66546;SDS011;53400;50.364;14.874;2024-01-30T13:18:19;39.28;;;19.67;;
66546;SDS011;53400;50.364;14.874;2024-01-30T13:20:46;38.22;;;18.73;;
66546;SDS011;53400;50.364;14.874;2024-01-30T13:23:16;36.75;;;20.02;;
66546;SDS011;53400;50.364;14.874;2024-01-30T13:25:42;47.85;;;21.88;;
66546;SDS011;53400;50.364;14.874;2024-01-30T13:28:10;41.25;;;19.25;;
66546;SDS011;53400;50.364;14.874;2024-01-30T13:30:36;40.17;;;19.73;;
66546;SDS011;53400;50.364;14.874;2024-01-30T13:33:06;41.55;;;19.92;;
66546;SDS011;53400;50.364;14.874;2024-01-30T13:35:34;39.30;;;19.15;;
66546;SDS011;53400;50.364;14.874;2024-01-30T13:38:01;42.30;;;20.40;;
66546;SDS011;53400;50.364;14.874;2024-01-30T13:40:26;40.38;;;20.23;;
66546;SDS011;53400;50.364;14.874;2024-01-30T13:42:53;38.70;;;19.58;;
66546;SDS011;53400;50.364;14.874;2024-01-30T13:45:21;43.63;;;20.23;;
66546;SDS011;53400;50.364;14.874;2024-01-30T13:47:52;40.80;;;20.92;;
66546;SDS011;53400;50.364;14.874;2024-01-30T13:50:18;37.30;;;19.60;;
66546;SDS011;53400;50.364;14.874;2024-01-30T13:52:44;40.65;;;19.90;;
66546;SDS011;53400;50.364;14.874;2024-01-30T13:55:11;41.88;;;20.20;;
66546;SDS011;53400;50.364;14.874;2024-01-30T13:57:44;39.40;;;20.38;;
66546;SDS011;53400;50.364;14.874;2024-01-30T14:00:10;41.75;;;20.65;;
66546;SDS011;53400;50.364;14.874;2024-01-30T14:02:39;38.38;;;19.42;;
66546;SDS011;53400;50.364;14.874;2024-01-30T14:05:05;39.83;;;20.17;;
66546;SDS011;53400;50.364;14.874;2024-01-30T14:07:46;37.92;;;18.85;;
66546;SDS011;53400;50.364;14.874;2024-01-30T14:10:12;40.05;;;21.25;;
66546;SDS011;53400;50.364;14.874;2024-01-30T14:12:39;38.30;;;18.92;;
66546;SDS011;53400;50.364;14.874;2024-01-30T14:15:08;38.95;;;20.50;;
66546;SDS011;53400;50.364;14.874;2024-01-30T14:17:45;39.10;;;18.13;;
66546;SDS011;53400;50.364;14.874;2024-01-30T14:20:13;35.22;;;18.90;;
66546;SDS011;53400;50.364;14.874;2024-01-30T14:22:40;40.05;;;19.90;;
66546;SDS011;53400;50.364;14.874;2024-01-30T14:25:07;41.88;;;19.70;;
66546;SDS011;53400;50.364;14.874;2024-01-30T14:27:42;37.05;;;19.33;;
66546;SDS011;53400;50.364;14.874;2024-01-30T14:30:09;39.78;;;19.50;;
66546;SDS011;53400;50.364;14.874;2024-01-30T14:32:37;33.22;;;17.63;;